Time;durP1;ratioP1;P1;durP2;ratioP2;P2;SDS_P1;SDS_P2;PMS_P1;PMS_P2;Temp;Humidity;BMP_temperature;BMP_pressure;BME280_temperature;BME280_humidity;BME280_pressure;Samples;Min_cycle;Max_cycle;Signal;HPM_P1;HPM_P2
2021/12/27 00:00:01;;;;;;;;;;;9.10;99.90;;;6.48;100.00;99411.28;4949057;29;20005;-79
2021/12/27 00:02:37;;;;;;;;;;;7.90;99.90;;;6.47;100.00;99411.28;4948102;29;19930;-80
2021/12/27 00:05:05;;;;;;;;;;;6.60;99.90;;;6.45;100.00;99408.69;4948786;29;19992;-79
2021/12/27 00:07:32;;;;;;;;;;;6.50;99.90;;;6.43;100.00;99397.44;4948472;29;20387;-79
2021/12/27 00:10:00;;;;;;;;;;;8.10;99.90;;;6.49;100.00;99406.88;4949407;28;20001;-80
2021/12/27 00:12:27;;;;;;;;;;;7.70;99.90;;;6.46;100.00;99394.75;4936885;28;19954;-80
2021/12/27 00:14:54;;;;;;;;;;;6.70;99.90;;;6.49;100.00;99406.88;4933126;29;19938;-80
2021/12/27 00:17:21;;;;;;;;;;;7.80;99.90;;;6.47;100.00;99400.84;4949812;28;19933;-80
2021/12/27 00:19:48;;;;;;;;;;;6.70;99.90;;;6.47;100.00;99399.06;4951427;28;19937;-79
2021/12/27 00:22:15;;;;;;;;;;;9.30;99.90;;;6.46;100.00;99407.81;4932955;29;20388;-80
2021/12/27 00:24:46;;;;;;;;;;;6.90;99.90;;;6.49;100.00;99396.44;4949285;29;19926;-80
2021/12/27 00:27:18;;;;;;;;;;;9.50;99.90;;;6.49;100.00;99397.31;4950287;28;20021;-80
2021/12/27 00:29:45;;;;;;;;;;;6.50;99.90;;;6.50;100.00;99401.63;4949760;28;19930;-79
2021/12/27 00:32:12;;;;;;;;;;;6.60;99.90;;;6.49;100.00;99399.94;4949823;28;19937;-80
2021/12/27 00:34:39;;;;;;;;;;;6.50;99.90;;;6.52;100.00;99393.75;4948464;28;19938;-80
2021/12/27 00:37:07;;;;;;;;;;;9.00;99.90;;;6.51;100.00;99398.13;4945081;29;19931;-80
2021/12/27 00:39:35;;;;;;;;;;;7.90;99.90;;;6.50;100.00;99391.19;4934153;29;19930;-80
2021/12/27 00:42:02;;;;;;;;;;;8.90;99.90;;;6.50;100.00;99391.19;4933575;28;19934;-80
2021/12/27 00:44:29;;;;;;;;;;;6.50;99.90;;;6.50;100.00;99387.69;4916695;29;20367;-79
2021/12/27 00:46:57;;;;;;;;;;;6.50;99.90;;;6.52;100.00;99392.00;4918154;29;19931;-80
2021/12/27 00:49:24;;;;;;;;;;;6.50;99.90;;;6.52;100.00;99397.22;4917946;28;20541;-80
2021/12/27 00:51:51;;;;;;;;;;;8.00;99.90;;;6.48;100.00;99390.38;4933632;28;19931;-81
2021/12/27 00:54:18;;;;;;;;;;;7.30;99.90;;;6.53;100.00;99390.25;4948399;28;19937;-80
2021/12/27 00:56:45;;;;;;;;;;;6.60;99.90;;;6.56;100.00;99384.97;4933310;28;19934;-79
2021/12/27 00:59:12;;;;;;;;;;;6.50;99.90;;;6.56;100.00;99384.97;4932862;29;19934;-80
2021/12/27 01:01:39;;;;;;;;;;;6.60;99.90;;;6.59;100.00;99387.50;4933116;28;19937;-80
2021/12/27 01:04:07;;;;;;;;;;;7.80;99.90;;;6.58;100.00;99396.25;4948440;29;20387;-80
2021/12/27 01:06:34;;;;;;;;;;;6.60;99.90;;;6.56;100.00;99397.16;4933584;28;20040;-80
2021/12/27 01:09:02;;;;;;;;;;;6.60;99.90;;;6.53;100.00;99396.34;4917606;29;19931;-79
2021/12/27 01:11:41;;;;;;;;;;;6.60;99.90;;;6.52;100.00;99392.00;4917583;29;20650;-79
2021/12/27 01:14:12;;;;;;;;;;;8.40;99.90;;;6.54;100.00;99391.94;4933883;29;19966;-79
2021/12/27 01:16:41;;;;;;;;;;;7.50;99.90;;;6.54;100.00;99397.19;4949399;29;19992;-80
2021/12/27 01:19:08;;;;;;;;;;;6.60;99.90;;;6.55;100.00;99398.91;4933232;28;19930;-80
2021/12/27 01:21:35;;;;;;;;;;;7.60;99.90;;;6.49;100.00;99396.44;4933151;29;19934;-80
2021/12/27 01:24:03;;;;;;;;;;;9.10;99.90;;;6.45;100.00;99395.63;4931958;28;19931;-80
2021/12/27 01:26:30;;;;;;;;;;;6.60;99.90;;;6.51;100.00;99400.75;4923852;28;19930;-80
2021/12/27 01:29:00;;;;;;;;;;;7.60;99.90;;;6.54;100.00;99402.41;4948703;29;19931;-79
2021/12/27 01:31:28;;;;;;;;;;;7.30;99.90;;;6.47;100.00;99395.63;4963973;28;19930;-80
2021/12/27 01:33:55;;;;;;;;;;;8.80;99.90;;;6.50;100.00;99390.31;4963337;28;19954;-80
2021/12/27 01:36:22;;;;;;;;;;;7.00;99.90;;;6.49;100.00;99393.81;4948230;29;20005;-80
2021/12/27 01:38:49;;;;;;;;;;;7.80;99.90;;;6.52;100.00;99389.41;4916807;28;20041;-80
2021/12/27 01:41:17;;;;;;;;;;;6.50;99.90;;;6.45;100.00;99395.63;4932237;29;19930;-79
2021/12/27 01:43:44;;;;;;;;;;;6.60;99.90;;;6.47;100.00;99396.47;4964693;28;19926;-80
2021/12/27 01:46:15;;;;;;;;;;;6.60;99.90;;;6.47;100.00;99383.38;4949894;29;19939;-79
2021/12/27 01:48:47;;;;;;;;;;;6.60;99.90;;;6.51;100.00;99387.69;4949101;28;19937;-79
2021/12/27 01:51:16;;;;;;;;;;;6.60;99.90;;;6.55;100.00;99392.81;4948864;28;19931;-80
2021/12/27 01:53:45;;;;;;;;;;;6.50;99.90;;;6.52;100.00;99389.41;4947709;28;19930;-79
2021/12/27 01:56:14;;;;;;;;;;;7.50;99.90;;;6.55;100.00;99395.44;4948666;28;19931;-80
2021/12/27 01:58:42;;;;;;;;;;;8.60;99.90;;;6.45;100.00;99385.19;4932620;29;19934;-80
2021/12/27 02:01:11;;;;;;;;;;;6.60;99.90;;;6.51;100.00;99390.28;4916907;28;20709;-79
2021/12/27 02:03:40;;;;;;;;;;;6.60;99.90;;;6.53;100.00;99391.09;4947715;28;20387;-79
2021/12/27 02:06:10;;;;;;;;;;;7.00;99.90;;;6.53;100.00;99388.50;4933099;28;19936;-80
2021/12/27 02:08:38;;;;;;;;;;;6.60;99.90;;;6.48;100.00;99382.53;4948178;28;19930;-79
2021/12/27 02:11:06;;;;;;;;;;;6.70;99.90;;;6.52;100.00;99391.13;4900539;29;19931;-79
2021/12/27 02:13:33;;;;;;;;;;;7.80;99.90;;;6.53;100.00;99385.00;4912209;29;20514;-80
2021/12/27 02:16:00;;;;;;;;;;;7.30;99.90;;;6.49;100.00;99378.16;4896598;29;20182;-80
2021/12/27 02:18:27;;;;;;;;;;;8.60;99.90;;;6.53;100.00;99382.41;4912480;29;19934;-81
2021/12/27 02:20:54;;;;;;;;;;;6.60;99.90;;;6.52;100.00;99381.56;4913024;29;20518;-79
2021/12/27 02:23:22;;;;;;;;;;;6.60;99.90;;;6.53;100.00;99377.16;4911002;29;19935;-79
2021/12/27 02:25:51;;;;;;;;;;;9.40;99.90;;;6.53;100.00;99375.44;4928638;29;20388;-78
2021/12/27 02:28:19;;;;;;;;;;;6.80;99.90;;;6.52;100.00;99373.72;4927853;29;19963;-78
2021/12/27 02:30:47;;;;;;;;;;;8.10;99.90;;;6.52;100.00;99371.09;4928038;29;19954;-79
2021/12/27 02:33:14;;;;;;;;;;;6.50;99.90;;;6.57;100.00;99368.38;4911389;29;20320;-77
2021/12/27 02:35:42;;;;;;;;;;;6.60;99.90;;;6.59;100.00;99381.41;4931691;29;19938;-78
2021/12/27 02:38:13;;;;;;;;;;;8.40;99.90;;;6.60;100.00;99367.44;4931414;29;19938;-78
2021/12/27 02:40:41;;;;;;;;;;;7.80;99.90;;;6.58;100.00;99367.50;4946758;28;19930;-79
2021/12/27 02:43:13;;;;;;;;;;;6.60;99.90;;;6.60;100.00;99368.31;4930152;29;19931;-79
2021/12/27 02:45:49;;;;;;;;;;;6.60;99.90;;;6.62;100.00;99371.75;4931127;28;19950;-79
2021/12/27 02:48:18;;;;;;;;;;;8.50;99.90;;;6.62;100.00;99365.63;4915942;28;19931;-79
2021/12/27 02:50:46;;;;;;;;;;;7.30;99.90;;;6.63;100.00;99363.00;4931756;28;20005;-79
2021/12/27 02:53:14;;;;;;;;;;;6.60;99.90;;;6.63;100.00;99363.00;4930036;28;19931;-79
2021/12/27 02:55:41;;;;;;;;;;;6.60;99.90;;;6.62;100.00;99368.25;4931556;29;20589;-78
2021/12/27 02:58:08;;;;;;;;;;;6.70;99.90;;;6.62;100.00;99365.63;4930297;29;19931;-79
2021/12/27 03:00:52;;;;;;;;;;;6.70;99.90;;;6.63;100.00;99357.78;4931794;29;19935;-79
2021/12/27 03:03:19;;;;;;;;;;;6.60;99.90;;;6.62;100.00;99349.94;4930201;28;19931;-79
2021/12/27 03:05:47;;;;;;;;;;;6.60;99.90;;;6.65;100.00;99350.75;4915159;29;19931;-79
2021/12/27 03:08:15;;;;;;;;;;;7.00;99.90;;;6.66;100.00;99347.22;4914219;29;19986;-78
2021/12/27 03:10:48;;;;;;;;;;;7.80;99.90;;;6.68;100.00;99344.59;4913441;29;19946;-78
2021/12/27 03:13:21;;;;;;;;;;;7.10;99.90;;;6.67;100.00;99342.88;4948730;28;19940;-79
2021/12/27 03:15:53;;;;;;;;;;;6.70;99.90;;;6.66;100.00;99341.16;4949556;29;19938;-78
2021/12/27 03:18:21;;;;;;;;;;;7.30;99.90;;;6.64;100.00;99346.41;4949852;28;20399;-78
2021/12/27 03:20:49;;;;;;;;;;;6.80;99.90;;;6.64;100.00;99335.97;4949542;29;19930;-78
2021/12/27 03:23:16;;;;;;;;;;;6.70;99.90;;;6.67;100.00;99332.44;4932008;29;19930;-78
2021/12/27 03:25:43;;;;;;;;;;;7.40;99.90;;;6.67;100.00;99341.09;4948589;29;19931;-78
2021/12/27 03:28:11;;;;;;;;;;;6.70;99.90;;;6.66;100.00;99344.63;4948417;29;19927;-78
2021/12/27 03:30:38;;;;;;;;;;;6.70;99.90;;;6.63;100.00;99339.47;4948355;28;19930;-78
2021/12/27 03:33:07;;;;;;;;;;;6.70;99.90;;;6.67;100.00;99342.88;4915671;29;20021;-78
2021/12/27 03:35:36;;;;;;;;;;;6.70;99.90;;;6.72;100.00;99338.38;4948499;29;20449;-79
2021/12/27 03:38:06;;;;;;;;;;;5.40;99.90;;;6.69;100.00;99324.53;4932914;29;19937;-79
2021/12/27 03:40:33;;;;;;;;;;;7.70;99.90;;;6.74;100.00;99333.97;4948622;29;19930;-78
2021/12/27 03:43:01;;;;;;;;;;;6.70;99.90;;;6.74;100.00;99333.97;4947617;28;20703;-79
2021/12/27 03:45:36;;;;;;;;;;;6.70;99.90;;;6.75;100.00;99332.22;4916645;29;19938;-80
2021/12/27 03:48:05;;;;;;;;;;;6.70;99.90;;;6.75;100.00;99329.63;4949168;28;20003;-77
2021/12/27 03:50:32;;;;;;;;;;;6.80;99.90;;;6.77;100.00;99326.03;4949723;28;19973;-78
2021/12/27 03:52:59;;;;;;;;;;;7.10;99.90;;;6.76;100.00;99321.72;4948187;29;19931;-78
2021/12/27 03:55:27;;;;;;;;;;;7.20;99.90;;;6.76;100.00;99329.56;4948544;29;19937;-79
2021/12/27 03:58:04;;;;;;;;;;;7.20;99.90;;;6.76;100.00;99334.78;4950158;29;20680;-79
2021/12/27 04:00:45;;;;;;;;;;;7.00;99.90;;;6.76;100.00;99332.19;4935081;28;19934;-78
2021/12/27 04:03:15;;;;;;;;;;;6.70;99.90;;;6.75;100.00;99338.31;4934177;29;19992;-80
2021/12/27 04:05:42;;;;;;;;;;;6.80;99.90;;;6.77;100.00;99335.66;4949426;28;19930;-79
2021/12/27 04:08:10;;;;;;;;;;;6.80;99.90;;;6.76;100.00;99344.41;4949466;29;19937;-79
2021/12/27 04:10:55;;;;;;;;;;;8.10;99.90;;;6.80;100.00;99332.97;4950999;28;20063;-79
2021/12/27 04:13:23;;;;;;;;;;;6.80;99.90;;;6.78;100.00;99329.53;4932576;29;19995;-79
2021/12/27 04:15:51;;;;;;;;;;;6.90;99.90;;;6.80;100.00;99327.75;4933972;28;19956;-78
2021/12/27 04:18:20;;;;;;;;;;;6.90;99.90;;;6.81;100.00;99330.31;4949155;28;19965;-78
2021/12/27 04:20:47;;;;;;;;;;;7.00;99.90;;;6.84;100.00;99331.97;4933773;28;19930;-79
2021/12/27 04:23:14;;;;;;;;;;;6.90;99.90;;;6.83;100.00;99339.88;4932543;29;19931;-78
2021/12/27 04:25:41;;;;;;;;;;;6.90;99.90;;;6.84;100.00;99339.81;4948888;29;19934;-79
2021/12/27 04:28:08;;;;;;;;;;;7.30;99.90;;;6.86;100.00;99334.56;4949156;28;19938;-78
2021/12/27 04:30:39;;;;;;;;;;;7.90;99.90;;;6.88;100.00;99333.66;4933877;29;19934;-79
2021/12/27 04:33:06;;;;;;;;;;;7.50;99.90;;;6.85;100.00;99331.09;4946285;29;19934;-78
2021/12/27 04:35:34;;;;;;;;;;;6.90;99.90;;;6.86;100.00;99334.56;4930004;29;19927;-78
2021/12/27 04:38:02;;;;;;;;;;;6.90;99.90;;;6.90;100.00;99333.59;4929852;29;19941;-78
2021/12/27 04:40:32;;;;;;;;;;;8.20;99.90;;;6.91;100.00;99338.78;4930439;29;19931;-79
2021/12/27 04:43:07;;;;;;;;;;;7.30;99.90;;;6.93;100.00;99333.50;4913526;29;19931;-79
2021/12/27 04:45:38;;;;;;;;;;;7.80;99.90;;;6.92;100.00;99326.56;4929582;29;19933;-79
2021/12/27 04:48:06;;;;;;;;;;;7.00;99.90;;;6.93;100.00;99323.03;4929724;29;19927;-79
2021/12/27 04:50:48;;;;;;;;;;;7.00;99.90;;;6.91;100.00;99323.09;4930934;29;20030;-78
2021/12/27 04:53:15;;;;;;;;;;;6.90;99.90;;;6.93;100.00;99317.81;4927333;29;19934;-78
2021/12/27 04:55:44;;;;;;;;;;;7.60;99.90;;;6.93;100.00;99318.69;4928787;29;19935;-79
2021/12/27 04:58:11;;;;;;;;;;;7.00;99.90;;;6.91;100.00;99311.78;4897435;29;19938;-78
2021/12/27 05:00:39;;;;;;;;;;;7.60;99.90;;;6.93;100.00;99307.34;4928201;29;20346;-78
2021/12/27 05:03:06;;;;;;;;;;;8.30;99.90;;;6.93;100.00;99303.00;4924961;28;19966;-78
2021/12/27 05:05:34;;;;;;;;;;;7.00;99.90;;;6.94;100.00;99290.75;4927907;28;19931;-78
2021/12/27 05:08:00;;;;;;;;;;;7.00;99.90;;;6.96;100.00;99296.84;4930736;29;20661;-78
2021/12/27 05:10:28;;;;;;;;;;;6.90;99.90;;;6.94;100.00;99299.47;4914356;29;20667;-77
2021/12/27 05:12:56;;;;;;;;;;;7.00;99.90;;;6.95;100.00;99298.56;4944817;28;19927;-78
2021/12/27 05:15:23;;;;;;;;;;;7.00;99.90;;;6.98;100.00;99296.78;4948062;28;19930;-78
2021/12/27 05:17:50;;;;;;;;;;;6.90;99.90;;;6.98;100.00;99295.03;4950237;29;19941;-78
2021/12/27 05:20:17;;;;;;;;;;;7.00;99.90;;;6.97;100.00;99298.56;4935634;29;19930;-79
2021/12/27 05:22:44;;;;;;;;;;;8.70;99.90;;;6.99;100.00;99301.97;4947482;28;20591;-79
2021/12/27 05:25:11;;;;;;;;;;;7.00;99.90;;;7.01;100.00;99288.84;4932218;29;19937;-79
2021/12/27 05:27:39;;;;;;;;;;;8.50;99.90;;;6.97;100.00;99284.59;4916674;29;19953;-77
2021/12/27 05:30:15;;;;;;;;;;;7.20;99.90;;;6.99;100.00;99274.94;4948460;28;19937;-79
2021/12/27 05:32:43;;;;;;;;;;;7.80;99.90;;;6.99;100.00;99280.19;4948592;28;19935;-79
2021/12/27 05:35:12;;;;;;;;;;;7.50;99.90;;;7.00;100.00;99271.44;4933404;28;19927;-79
2021/12/27 05:37:40;;;;;;;;;;;7.10;99.90;;;7.01;100.00;99275.78;4913598;29;19937;-78
2021/12/27 05:40:10;;;;;;;;;;;8.10;99.90;;;6.97;100.00;99272.41;4897745;29;19970;-79
2021/12/27 05:42:37;;;;;;;;;;;7.00;99.90;;;6.94;100.00;99268.09;4928106;29;19930;-79
2021/12/27 05:45:04;;;;;;;;;;;8.10;99.90;;;7.00;100.00;99274.06;4928312;29;19931;-78
2021/12/27 05:47:31;;;;;;;;;;;7.00;99.90;;;6.97;100.00;99271.53;4928589;29;20702;-78
2021/12/27 05:49:58;;;;;;;;;;;7.00;99.90;;;6.92;100.00;99261.19;4913154;29;20408;-78
2021/12/27 05:52:25;;;;;;;;;;;7.00;99.90;;;6.94;100.00;99268.09;4912154;29;19977;-79
2021/12/27 05:54:52;;;;;;;;;;;8.50;99.90;;;6.96;100.00;99265.47;4929886;29;20053;-79
2021/12/27 05:57:19;;;;;;;;;;;7.00;99.90;;;6.99;100.00;99251.41;4931195;29;20304;-78
2021/12/27 05:59:47;;;;;;;;;;;9.00;99.90;;;6.98;100.00;99252.31;4914639;29;20260;-78
2021/12/27 06:02:14;;;;;;;;;;;7.40;99.90;;;6.97;100.00;99258.44;4913893;29;19931;-78
2021/12/27 06:04:42;;;;;;;;;;;7.60;99.90;;;6.96;100.00;99257.59;4916865;29;19934;-79
2021/12/27 06:07:08;;;;;;;;;;;7.30;99.90;;;6.96;100.00;99257.59;4948824;29;19934;-78
2021/12/27 06:09:35;;;;;;;;;;;7.10;99.90;;;6.90;100.00;99253.41;4950650;28;19930;-79
2021/12/27 06:12:03;;;;;;;;;;;7.00;99.90;;;6.93;100.00;99265.50;4936257;29;19934;-78
2021/12/27 06:14:30;;;;;;;;;;;7.00;99.90;;;6.97;100.00;99263.69;4950899;29;19930;-79
2021/12/27 06:16:57;;;;;;;;;;;7.00;99.90;;;6.93;100.00;99249.81;4951924;29;19935;-79
2021/12/27 06:19:24;;;;;;;;;;;7.00;99.90;;;6.91;100.00;99244.66;4952101;28;19931;-79
2021/12/27 06:21:52;;;;;;;;;;;7.30;99.90;;;6.89;100.00;99256.03;4950931;29;20025;-78
2021/12/27 06:24:19;;;;;;;;;;;7.00;99.90;;;6.84;100.00;99248.31;4949514;28;19935;-79
2021/12/27 06:26:46;;;;;;;;;;;6.80;99.90;;;6.76;100.00;99239.84;4966315;28;19930;-77
2021/12/27 06:29:13;;;;;;;;;;;9.30;99.90;;;6.78;100.00;99246.72;4918883;29;19976;-79
2021/12/27 06:31:40;;;;;;;;;;;6.90;99.90;;;6.74;100.00;99233.78;4950127;29;20314;-78
2021/12/27 06:34:07;;;;;;;;;;;6.90;99.90;;;6.76;100.00;99235.44;4949162;28;19930;-79
2021/12/27 06:36:34;;;;;;;;;;;9.70;99.90;;;6.66;100.00;99229.59;4950097;28;19931;-78
2021/12/27 06:39:03;;;;;;;;;;;7.50;99.90;;;6.66;100.00;99232.22;4939425;28;19930;-78
2021/12/27 06:41:30;;;;;;;;;;;7.00;99.90;;;6.60;100.00;99239.34;4950608;28;19926;-78
2021/12/27 06:43:57;;;;;;;;;;;7.60;99.90;;;6.55;100.00;99234.25;4933535;28;20394;-79
2021/12/27 06:46:24;;;;;;;;;;;6.70;99.90;;;6.51;100.00;99238.72;4950477;28;19931;-79
2021/12/27 06:48:51;;;;;;;;;;;6.70;99.90;;;6.41;100.00;99228.53;4949769;28;19926;-79
2021/12/27 06:51:18;;;;;;;;;;;8.30;99.90;;;6.43;100.00;99234.59;4933529;28;19937;-80
2021/12/27 06:53:45;;;;;;;;;;;6.60;99.90;;;6.35;100.00;99238.22;4932393;29;19934;-78
2021/12/27 06:56:12;;;;;;;;;;;6.50;99.90;;;6.41;100.00;99237.22;4933060;28;19934;-79
2021/12/27 06:58:39;;;;;;;;;;;6.50;99.90;;;6.40;100.00;99227.66;4932736;29;20402;-79
2021/12/27 07:01:07;;;;;;;;;;;6.50;99.90;;;6.33;100.00;99234.81;4948892;29;19938;-78
2021/12/27 07:03:34;;;;;;;;;;;7.80;99.90;;;6.32;100.00;99237.44;4946865;28;19930;-78
2021/12/27 07:06:01;;;;;;;;;;;6.40;99.90;;;6.30;100.00;99236.63;4933417;28;19933;-79
2021/12/27 07:08:28;;;;;;;;;;;6.50;99.90;;;6.29;100.00;99230.56;4933695;29;19931;-78
2021/12/27 07:10:55;;;;;;;;;;;6.40;99.90;;;6.33;100.00;99228.72;4933895;28;19926;-78
2021/12/27 07:13:22;;;;;;;;;;;6.50;99.90;;;6.31;100.00;99231.38;4951723;28;19931;-79
2021/12/27 07:15:49;;;;;;;;;;;6.40;99.90;;;6.26;100.00;99224.53;4934566;29;20249;-79
2021/12/27 07:18:22;;;;;;;;;;;6.40;99.90;;;6.29;100.00;99235.78;4949224;29;19956;-80
2021/12/27 07:20:51;;;;;;;;;;;6.40;99.90;;;6.31;100.00;99235.72;4932239;29;20430;-79
2021/12/27 07:23:18;;;;;;;;;;;6.40;99.90;;;6.34;100.00;99233.91;4946239;29;19937;-78
2021/12/27 07:25:45;;;;;;;;;;;6.40;99.90;;;6.33;100.00;99231.34;4949695;28;20463;-78
2021/12/27 07:28:12;;;;;;;;;;;6.40;99.90;;;6.38;100.00;99232.91;4949037;29;19938;-78
2021/12/27 07:30:39;;;;;;;;;;;6.40;99.90;;;6.39;100.00;99225.94;4939535;29;19930;-79
2021/12/27 07:33:06;;;;;;;;;;;6.50;99.90;;;6.38;100.00;99229.47;4927164;29;19942;-79
2021/12/27 07:35:34;;;;;;;;;;;6.50;99.90;;;6.43;100.00;99234.59;4927959;29;19935;-78
2021/12/27 07:38:01;;;;;;;;;;;6.90;99.90;;;6.46;100.00;99237.94;4928579;29;20384;-78
2021/12/27 07:40:28;;;;;;;;;;;6.60;99.90;;;6.45;100.00;99236.25;4928478;29;19931;-79
2021/12/27 07:42:56;;;;;;;;;;;7.90;99.90;;;6.48;100.00;99232.69;4943522;29;20296;-78
2021/12/27 07:45:23;;;;;;;;;;;6.50;99.90;;;6.45;100.00;99232.78;4929114;29;19980;-78
2021/12/27 07:47:50;;;;;;;;;;;6.50;99.90;;;6.51;100.00;99238.72;4944033;29;19938;-78
2021/12/27 07:50:17;;;;;;;;;;;6.80;99.90;;;6.53;100.00;99239.53;4927995;29;19965;-75
2021/12/27 07:52:49;;;;;;;;;;;6.90;99.90;;;6.57;100.00;99242.06;4927029;28;19931;-77
2021/12/27 07:55:15;;;;;;;;;;;5.60;99.90;;;6.59;100.00;99240.25;4911754;29;19931;-77
2021/12/27 07:57:43;;;;;;;;;;;8.40;99.90;;;6.62;100.00;99230.59;4943582;29;19931;-77
2021/12/27 08:00:10;;;;;;;;;;;6.70;99.90;;;6.66;100.00;99239.22;4929020;29;19933;-78
2021/12/27 08:02:38;;;;;;;;;;;6.70;99.90;;;6.63;100.00;99237.53;4928812;28;20370;-78
2021/12/27 08:05:06;;;;;;;;;;;7.90;99.90;;;6.70;100.00;99222.53;4938909;28;19931;-79
2021/12/27 08:07:33;;;;;;;;;;;6.80;99.90;;;6.79;100.00;99232.78;4928353;29;19935;-78
2021/12/27 08:10:00;;;;;;;;;;;6.80;99.90;;;6.80;100.00;99231.88;4943461;29;19954;-78
2021/12/27 08:12:27;;;;;;;;;;;7.10;99.90;;;6.84;100.00;99226.56;4938603;29;19930;-78
2021/12/27 08:14:54;;;;;;;;;;;6.80;99.90;;;6.90;100.00;99224.63;4927580;29;19935;-78
2021/12/27 08:17:21;;;;;;;;;;;6.90;99.90;;;6.97;100.00;99225.31;4942532;28;20282;-78
2021/12/27 08:19:48;;;;;;;;;;;8.20;99.90;;;7.00;100.00;99230.47;4948876;28;19930;-77
2021/12/27 08:22:15;;;;;;;;;;;7.00;99.90;;;7.02;100.00;99220.81;4947185;28;19927;-78
2021/12/27 08:24:51;;;;;;;;;;;8.40;99.90;;;7.10;100.00;99228.44;4910603;28;19930;-79
2021/12/27 08:27:21;;;;;;;;;;;7.10;99.90;;;7.11;100.00;99224.94;4948384;28;19936;-79
2021/12/27 08:29:48;;;;;;;;;;;7.20;99.90;;;7.13;100.00;99220.50;4952483;29;20002;-78
2021/12/27 08:32:15;;;;;;;;;;;7.20;99.90;;;7.13;100.00;99209.19;4923915;28;19937;-78
2021/12/27 08:34:42;;;;;;;;;;;7.80;99.90;;;7.18;100.00;99213.41;4944052;29;20307;-78
2021/12/27 08:37:10;;;;;;;;;;;7.20;99.90;;;7.25;100.00;99211.44;4931301;29;20393;-77
2021/12/27 08:39:38;;;;;;;;;;;6.50;99.90;;;7.29;100.00;99207.00;4947936;28;19937;-79
2021/12/27 08:42:10;;;;;;;;;;;7.30;99.90;;;7.30;100.00;99195.63;4949815;28;20029;-78
2021/12/27 08:44:38;;;;;;;;;;;7.30;99.90;;;7.35;100.00;99205.06;4953758;28;19938;-79
2021/12/27 08:47:05;;;;;;;;;;;7.40;99.90;;;7.37;100.00;99205.03;4998683;28;20009;-79
2021/12/27 08:49:32;;;;;;;;;;;7.40;99.90;;;7.41;100.00;99216.22;4942187;28;19938;-78
2021/12/27 08:52:16;;;;;;;;;;;7.40;99.90;;;7.42;100.00;99205.72;4931764;29;19930;-78
2021/12/27 08:54:43;;;;;;;;;;;7.40;99.90;;;7.45;100.00;99208.25;4913130;28;19941;-79
2021/12/27 08:57:10;;;;;;;;;;;8.60;99.90;;;7.43;100.00;99210.06;4924652;28;19927;-78
2021/12/27 08:59:37;;;;;;;;;;;8.00;99.90;;;7.43;100.00;99212.69;4924715;28;20055;-78
2021/12/27 09:02:05;;;;;;;;;;;8.70;99.90;;;7.50;100.00;99211.59;4944520;29;19937;-77
2021/12/27 09:04:32;;;;;;;;;;;7.50;99.90;;;7.47;100.00;99202.97;4929016;29;19930;-78
2021/12/27 09:07:00;;;;;;;;;;;10.10;99.90;;;7.52;100.00;99204.56;4944271;28;19931;-76
2021/12/27 09:09:26;;;;;;;;;;;7.60;99.90;;;7.56;100.00;99207.06;4944368;28;19937;-77
2021/12/27 09:11:53;;;;;;;;;;;10.00;99.90;;;7.53;100.00;99205.41;5007823;28;19970;-77
2021/12/27 09:14:20;;;;;;;;;;;9.30;99.90;;;7.55;100.00;99194.91;4920312;29;19926;-78
2021/12/27 09:16:47;;;;;;;;;;;7.60;99.90;;;7.64;100.00;99203.31;4954866;28;20025;-78
2021/12/27 09:19:15;;;;;;;;;;;8.40;99.90;;;7.69;100.00;99202.31;4913563;29;20442;-77
2021/12/27 09:21:42;;;;;;;;;;;7.60;99.90;;;7.68;100.00;99192.75;4945638;28;19930;-76
2021/12/27 09:24:14;;;;;;;;;;;9.90;99.90;;;7.75;100.00;99194.28;4948695;28;19941;-77
2021/12/27 09:26:41;;;;;;;;;;;7.70;99.90;;;7.79;100.00;99194.13;4953300;28;19931;-77
2021/12/27 09:29:09;;;;;;;;;;;7.70;99.90;;;7.80;100.00;99195.00;4946220;29;20021;-76
2021/12/27 09:31:36;;;;;;;;;;;8.20;99.90;;;7.81;100.00;99194.09;4949436;29;19930;-78
2021/12/27 09:34:03;;;;;;;;;;;7.80;99.90;;;7.88;100.00;99186.91;4947669;29;19952;-77
2021/12/27 09:36:30;;;;;;;;;;;8.20;99.90;;;7.90;100.00;99183.31;4939828;28;19937;-79
2021/12/27 09:38:58;;;;;;;;;;;7.90;99.90;;;7.90;100.00;99183.31;4913300;28;19938;-79
2021/12/27 09:41:26;;;;;;;;;;;7.90;99.90;;;7.97;100.00;99173.50;4929416;29;19931;-79
2021/12/27 09:43:54;;;;;;;;;;;7.90;99.90;;;7.98;100.00;99174.34;4916123;28;20362;-79
2021/12/27 09:46:22;;;;;;;;;;;9.70;99.90;;;7.98;100.00;99169.97;4929713;29;20306;-80
2021/12/27 09:48:52;;;;;;;;;;;8.30;99.90;;;8.06;100.00;99174.97;4932093;29;20017;-79
2021/12/27 09:51:19;;;;;;;;;;;8.00;99.90;;;8.06;100.00;99167.97;4916831;29;19957;-80
2021/12/27 09:53:47;;;;;;;;;;;8.00;99.90;;;8.11;100.00;99167.81;4947772;28;19930;-80
2021/12/27 09:56:14;;;;;;;;;;;8.10;99.90;;;8.13;100.00;99168.59;4932558;29;19942;-79
2021/12/27 09:58:41;;;;;;;;;;;8.10;99.90;;;8.18;100.00;99171.09;4949967;29;19945;-79
2021/12/27 10:01:08;;;;;;;;;;;8.20;99.90;;;8.23;100.00;99163.91;4951163;28;19969;-80
2021/12/27 10:03:50;;;;;;;;;;;8.20;99.90;;;8.27;100.00;99160.28;4936730;28;19927;-79
2021/12/27 10:06:19;;;;;;;;;;;8.20;99.90;;;8.24;100.00;99157.75;4933629;29;22287;-79
2021/12/27 10:08:47;;;;;;;;;;;8.20;99.90;;;8.26;100.00;99150.69;4947238;29;20417;-78
2021/12/27 10:11:16;;;;;;;;;;;8.70;99.90;;;8.32;100.00;99155.75;4950080;29;19930;-79
2021/12/27 10:14:00;;;;;;;;;;;8.30;99.90;;;8.42;100.00;99147.56;4932803;29;19942;-76
2021/12/27 10:16:28;;;;;;;;;;;8.30;99.90;;;8.43;100.00;99133.53;4946211;28;19937;-78
2021/12/27 10:19:01;;;;;;;;;;;8.40;99.90;;;8.48;100.00;99129.84;4943522;29;19926;-76
2021/12/27 10:21:28;;;;;;;;;;;8.40;99.90;;;8.55;100.00;99119.19;4935852;29;19931;-77
2021/12/27 10:24:14;;;;;;;;;;;8.70;99.90;;;8.56;100.00;99113.03;4936076;28;19950;-79
2021/12/27 10:26:46;;;;;;;;;;;8.50;99.90;;;8.67;100.00;99117.88;4965089;28;19935;-77
2021/12/27 10:29:16;;;;;;;;;;;8.90;99.90;;;8.70;100.00;99120.41;4953922;28;19937;-79
2021/12/27 10:31:53;;;;;;;;;;;8.60;99.90;;;8.78;100.00;99118.38;4941851;29;19935;-79
2021/12/27 10:34:22;;;;;;;;;;;8.60;99.90;;;8.89;100.00;99117.97;4949025;29;19926;-81
2021/12/27 10:37:21;;;;;;;;;;;9.30;99.90;;;8.96;100.00;99115.97;4919863;29;19950;-81
2021/12/27 10:39:56;;;;;;;;;;;8.80;99.90;;;9.08;100.00;99118.97;4935551;29;19980;-80
2021/12/27 10:42:33;;;;;;;;;;;8.90;99.90;;;9.16;100.00;99109.97;4948370;28;19937;-79
2021/12/27 10:45:27;;;;;;;;;;;9.00;99.90;;;9.24;100.00;99109.69;5023897;28;19927;-80
2021/12/27 10:47:57;;;;;;;;;;;10.60;99.90;;;9.32;100.00;99111.09;5015402;28;19938;-78
2021/12/27 10:50:31;;;;;;;;;;;9.20;99.90;;;9.45;100.00;99107.97;4929993;29;19931;-79
2021/12/27 10:53:00;;;;;;;;;;;10.30;99.90;;;9.54;100.00;99104.13;4905580;28;19931;-80
2021/12/27 10:55:44;;;;;;;;;;;9.40;99.90;;;9.63;100.00;99099.38;4925183;29;19937;-78
2021/12/27 10:58:20;;;;;;;;;;;9.90;99.90;;;9.68;100.00;99093.94;4930850;29;20318;-79
2021/12/27 11:00:59;;;;;;;;;;;9.50;99.90;;;9.77;100.00;99090.06;4913189;29;19931;-78
2021/12/27 11:03:31;;;;;;;;;;;9.60;99.90;;;9.86;100.00;99086.22;4944030;28;20280;-79
2021/12/27 11:05:59;;;;;;;;;;;9.70;99.90;;;9.84;100.00;99083.63;4947785;29;19936;-79
2021/12/27 11:08:27;;;;;;;;;;;11.00;99.90;;;9.92;100.00;99088.56;4932370;29;20036;-78
2021/12/27 11:10:55;;;;;;;;;;;9.80;99.90;;;9.92;100.00;99089.44;4944311;29;20734;-78
2021/12/27 11:13:23;;;;;;;;;;;9.80;99.90;;;9.95;100.00;99083.19;4948741;28;19931;-79
2021/12/27 11:15:50;;;;;;;;;;;10.00;99.90;;;9.99;100.00;99087.41;4934906;28;19937;-80
2021/12/27 11:18:18;;;;;;;;;;;9.90;99.90;;;10.03;100.00;99085.47;4939183;29;19984;-82
2021/12/27 11:20:55;;;;;;;;;;;11.20;99.90;;;10.07;100.00;99074.78;4914907;29;19935;-78
2021/12/27 11:23:23;;;;;;;;;;;9.90;99.90;;;10.07;100.00;99073.94;4929096;29;19931;-78
2021/12/27 11:26:06;;;;;;;;;;;11.10;99.90;;;10.10;100.00;99068.53;4920518;29;20529;-80
2021/12/27 11:28:35;;;;;;;;;;;10.00;99.90;;;10.15;100.00;99081.50;4929098;29;19937;-79
2021/12/27 11:31:13;;;;;;;;;;;10.10;99.90;;;10.17;100.00;99072.59;4932259;29;20023;-81